sensor_id;sensor_type;location;lat;lon;timestamp;P1;durP1;ratioP1;P2;durP2;ratioP2
53694;SDS011;39588;51.124;7.190;2022-07-23T00:00:00;3.37;;;3.17;;
53694;SDS011;39588;51.124;7.190;2022-07-23T00:02:25;3.60;;;3.07;;
53694;SDS011;39588;51.124;7.190;2022-07-23T00:04:51;4.63;;;3.37;;
53694;SDS011;39588;51.124;7.190;2022-07-23T00:07:17;2.40;;;2.27;;
53694;SDS011;39588;51.124;7.190;2022-07-23T00:09:42;3.70;;;3.43;;
53694;SDS011;39588;51.124;7.190;2022-07-23T00:12:08;3.50;;;3.20;;
53694;SDS011;39588;51.124;7.190;2022-07-23T00:14:34;3.27;;;2.97;;
53694;SDS011;39588;51.124;7.190;2022-07-23T00:16:59;3.23;;;3.13;;
53694;SDS011;39588;51.124;7.190;2022-07-23T00:19:25;2.67;;;2.50;;
53694;SDS011;39588;51.124;7.190;2022-07-23T00:21:50;10.30;;;4.40;;
53694;SDS011;39588;51.124;7.190;2022-07-23T00:24:16;2.77;;;1.80;;
53694;SDS011;39588;51.124;7.190;2022-07-23T00:26:42;0.70;;;0.70;;
53694;SDS011;39588;51.124;7.190;2022-07-23T00:29:07;0.50;;;0.50;;
53694;SDS011;39588;51.124;7.190;2022-07-23T00:31:33;3.23;;;0.97;;
53694;SDS011;39588;51.124;7.190;2022-07-23T00:33:59;0.30;;;0.30;;
53694;SDS011;39588;51.124;7.190;2022-07-23T00:36:26;0.67;;;0.67;;
53694;SDS011;39588;51.124;7.190;2022-07-23T00:38:52;4.17;;;1.47;;
53694;SDS011;39588;51.124;7.190;2022-07-23T00:41:18;0.30;;;0.30;;
53694;SDS011;39588;51.124;7.190;2022-07-23T00:43:44;0.33;;;0.33;;
53694;SDS011;39588;51.124;7.190;2022-07-23T00:46:10;0.10;;;0.10;;
53694;SDS011;39588;51.124;7.190;2022-07-23T00:48:35;0.23;;;0.23;;
53694;SDS011;39588;51.124;7.190;2022-07-23T00:51:01;8.77;;;1.77;;
53694;SDS011;39588;51.124;7.190;2022-07-23T00:53:27;1.20;;;1.20;;
53694;SDS011;39588;51.124;7.190;2022-07-23T00:55:53;0.00;;;0.00;;
53694;SDS011;39588;51.124;7.190;2022-07-23T00:58:19;0.40;;;0.40;;
53694;SDS011;39588;51.124;7.190;2022-07-23T01:00:45;0.00;;;0.00;;
53694;SDS011;39588;51.124;7.190;2022-07-23T01:03:13;0.57;;;0.57;;
53694;SDS011;39588;51.124;7.190;2022-07-23T01:05:38;0.10;;;0.10;;
53694;SDS011;39588;51.124;7.190;2022-07-23T01:08:05;1.17;;;0.60;;
53694;SDS011;39588;51.124;7.190;2022-07-23T01:10:31;2.93;;;0.97;;
53694;SDS011;39588;51.124;7.190;2022-07-23T01:12:57;1.70;;;1.13;;
53694;SDS011;39588;51.124;7.190;2022-07-23T01:15:27;0.10;;;0.10;;
53694;SDS011;39588;51.124;7.190;2022-07-23T01:17:54;0.97;;;0.97;;
53694;SDS011;39588;51.124;7.190;2022-07-23T01:20:20;1.43;;;1.13;;
53694;SDS011;39588;51.124;7.190;2022-07-23T01:22:46;3.73;;;0.83;;
53694;SDS011;39588;51.124;7.190;2022-07-23T01:25:12;1.50;;;1.47;;
53694;SDS011;39588;51.124;7.190;2022-07-23T01:27:38;0.00;;;0.00;;
53694;SDS011;39588;51.124;7.190;2022-07-23T01:30:04;0.20;;;0.20;;
53694;SDS011;39588;51.124;7.190;2022-07-23T01:32:31;0.10;;;0.10;;
53694;SDS011;39588;51.124;7.190;2022-07-23T01:34:56;0.33;;;0.33;;
53694;SDS011;39588;51.124;7.190;2022-07-23T01:37:22;0.40;;;0.40;;
53694;SDS011;39588;51.124;7.190;2022-07-23T01:39:48;0.40;;;0.40;;
53694;SDS011;39588;51.124;7.190;2022-07-23T01:42:13;5.27;;;2.00;;
53694;SDS011;39588;51.124;7.190;2022-07-23T01:44:39;0.53;;;0.53;;
53694;SDS011;39588;51.124;7.190;2022-07-23T01:47:04;3.07;;;1.73;;
53694;SDS011;39588;51.124;7.190;2022-07-23T01:49:30;0.10;;;0.10;;
53694;SDS011;39588;51.124;7.190;2022-07-23T01:51:56;0.10;;;0.10;;
53694;SDS011;39588;51.124;7.190;2022-07-23T01:54:25;0.87;;;0.50;;
53694;SDS011;39588;51.124;7.190;2022-07-23T01:56:54;0.13;;;0.13;;
53694;SDS011;39588;51.124;7.190;2022-07-23T01:59:20;0.67;;;0.67;;
53694;SDS011;39588;51.124;7.190;2022-07-23T02:01:46;0.20;;;0.20;;
53694;SDS011;39588;51.124;7.190;2022-07-23T02:04:12;0.17;;;0.17;;
53694;SDS011;39588;51.124;7.190;2022-07-23T02:06:38;0.10;;;0.10;;
53694;SDS011;39588;51.124;7.190;2022-07-23T02:09:04;0.23;;;0.23;;
53694;SDS011;39588;51.124;7.190;2022-07-23T02:11:29;0.33;;;0.33;;
53694;SDS011;39588;51.124;7.190;2022-07-23T02:13:55;0.37;;;0.37;;
53694;SDS011;39588;51.124;7.190;2022-07-23T02:16:20;0.10;;;0.10;;
53694;SDS011;39588;51.124;7.190;2022-07-23T02:18:46;0.20;;;0.20;;
53694;SDS011;39588;51.124;7.190;2022-07-23T02:21:12;0.20;;;0.20;;
53694;SDS011;39588;51.124;7.190;2022-07-23T02:23:38;1.20;;;1.20;;
53694;SDS011;39588;51.124;7.190;2022-07-23T02:26:03;1.60;;;1.03;;
53694;SDS011;39588;51.124;7.190;2022-07-23T02:28:29;0.00;;;0.00;;
53694;SDS011;39588;51.124;7.190;2022-07-23T02:30:55;0.30;;;0.30;;
53694;SDS011;39588;51.124;7.190;2022-07-23T02:33:20;0.20;;;0.20;;
53694;SDS011;39588;51.124;7.190;2022-07-23T02:35:46;0.03;;;0.03;;
53694;SDS011;39588;51.124;7.190;2022-07-23T02:38:11;0.60;;;0.60;;
53694;SDS011;39588;51.124;7.190;2022-07-23T02:40:37;0.10;;;0.10;;
53694;SDS011;39588;51.124;7.190;2022-07-23T02:43:03;0.10;;;0.10;;
53694;SDS011;39588;51.124;7.190;2022-07-23T02:45:28;0.60;;;0.60;;
53694;SDS011;39588;51.124;7.190;2022-07-23T02:47:54;0.20;;;0.20;;
53694;SDS011;39588;51.124;7.190;2022-07-23T02:50:20;1.33;;;1.03;;
53694;SDS011;39588;51.124;7.190;2022-07-23T02:52:45;7.10;;;1.60;;
53694;SDS011;39588;51.124;7.190;2022-07-23T02:55:11;0.20;;;0.20;;
53694;SDS011;39588;51.124;7.190;2022-07-23T02:57:37;0.23;;;0.23;;
53694;SDS011;39588;51.124;7.190;2022-07-23T03:00:03;0.40;;;0.40;;
53694;SDS011;39588;51.124;7.190;2022-07-23T03:02:31;0.10;;;0.10;;
53694;SDS011;39588;51.124;7.190;2022-07-23T03:04:56;0.20;;;0.20;;
53694;SDS011;39588;51.124;7.190;2022-07-23T03:07:22;0.87;;;0.87;;
53694;SDS011;39588;51.124;7.190;2022-07-23T03:09:48;0.40;;;0.40;;
53694;SDS011;39588;51.124;7.190;2022-07-23T03:12:13;0.20;;;0.20;;
53694;SDS011;39588;51.124;7.190;2022-07-23T03:14:39;0.60;;;0.60;;
53694;SDS011;39588;51.124;7.190;2022-07-23T03:17:05;0.27;;;0.27;;
53694;SDS011;39588;51.124;7.190;2022-07-23T03:19:31;0.33;;;0.33;;
53694;SDS011;39588;51.124;7.190;2022-07-23T03:21:57;0.10;;;0.10;;
53694;SDS011;39588;51.124;7.190;2022-07-23T03:24:22;1.23;;;1.13;;
53694;SDS011;39588;51.124;7.190;2022-07-23T03:27:08;0.30;;;0.30;;
53694;SDS011;39588;51.124;7.190;2022-07-23T03:29:53;0.20;;;0.20;;
53694;SDS011;39588;51.124;7.190;2022-07-23T03:32:20;0.10;;;0.10;;
53694;SDS011;39588;51.124;7.190;2022-07-23T03:34:46;0.10;;;0.10;;
53694;SDS011;39588;51.124;7.190;2022-07-23T03:37:12;0.30;;;0.30;;
53694;SDS011;39588;51.124;7.190;2022-07-23T03:39:38;0.20;;;0.20;;
53694;SDS011;39588;51.124;7.190;2022-07-23T03:42:04;0.20;;;0.20;;
53694;SDS011;39588;51.124;7.190;2022-07-23T03:44:30;0.10;;;0.10;;
53694;SDS011;39588;51.124;7.190;2022-07-23T03:46:56;0.30;;;0.30;;
53694;SDS011;39588;51.124;7.190;2022-07-23T03:49:22;0.10;;;0.10;;
53694;SDS011;39588;51.124;7.190;2022-07-23T03:51:47;2.07;;;0.90;;
53694;SDS011;39588;51.124;7.190;2022-07-23T03:54:13;0.37;;;0.30;;
53694;SDS011;39588;51.124;7.190;2022-07-23T03:56:39;7.10;;;0.87;;
53694;SDS011;39588;51.124;7.190;2022-07-23T03:59:04;0.23;;;0.23;;
53694;SDS011;39588;51.124;7.190;2022-07-23T04:01:30;0.10;;;0.10;;
53694;SDS011;39588;51.124;7.190;2022-07-23T04:03:56;0.00;;;0.00;;
53694;SDS011;39588;51.124;7.190;2022-07-23T04:06:21;0.00;;;0.00;;
53694;SDS011;39588;51.124;7.190;2022-07-23T04:08:47;0.30;;;0.30;;
53694;SDS011;39588;51.124;7.190;2022-07-23T04:11:12;2.63;;;1.43;;
53694;SDS011;39588;51.124;7.190;2022-07-23T04:13:38;0.07;;;0.07;;
53694;SDS011;39588;51.124;7.190;2022-07-23T04:16:04;0.20;;;0.20;;
53694;SDS011;39588;51.124;7.190;2022-07-23T04:18:31;0.00;;;0.00;;
53694;SDS011;39588;51.124;7.190;2022-07-23T04:20:56;0.07;;;0.07;;
53694;SDS011;39588;51.124;7.190;2022-07-23T04:23:22;0.10;;;0.10;;
53694;SDS011;39588;51.124;7.190;2022-07-23T04:25:48;0.10;;;0.10;;
53694;SDS011;39588;51.124;7.190;2022-07-23T04:28:14;0.10;;;0.10;;
53694;SDS011;39588;51.124;7.190;2022-07-23T04:30:39;0.17;;;0.17;;
53694;SDS011;39588;51.124;7.190;2022-07-23T04:33:05;0.77;;;0.77;;
53694;SDS011;39588;51.124;7.190;2022-07-23T04:35:32;0.20;;;0.20;;
53694;SDS011;39588;51.124;7.190;2022-07-23T04:37:58;0.40;;;0.40;;
53694;SDS011;39588;51.124;7.190;2022-07-23T04:40:24;0.60;;;0.60;;
53694;SDS011;39588;51.124;7.190;2022-07-23T04:42:50;0.10;;;0.10;;
53694;SDS011;39588;51.124;7.190;2022-07-23T04:45:16;0.07;;;0.07;;
53694;SDS011;39588;51.124;7.190;2022-07-23T04:47:42;0.03;;;0.03;;
53694;SDS011;39588;51.124;7.190;2022-07-23T04:50:07;0.20;;;0.20;;
53694;SDS011;39588;51.124;7.190;2022-07-23T04:52:33;0.10;;;0.10;;
53694;SDS011;39588;51.124;7.190;2022-07-23T04:54:59;1.03;;;1.03;;
53694;SDS011;39588;51.124;7.190;2022-07-23T04:57:24;0.40;;;0.40;;
53694;SDS011;39588;51.124;7.190;2022-07-23T04:59:50;2.83;;;1.00;;
53694;SDS011;39588;51.124;7.190;2022-07-23T05:02:16;0.10;;;0.10;;
53694;SDS011;39588;51.124;7.190;2022-07-23T05:04:41;0.40;;;0.40;;
53694;SDS011;39588;51.124;7.190;2022-07-23T05:07:07;0.10;;;0.10;;
53694;SDS011;39588;51.124;7.190;2022-07-23T05:09:33;0.03;;;0.03;;
53694;SDS011;39588;51.124;7.190;2022-07-23T05:11:59;0.10;;;0.10;;
53694;SDS011;39588;51.124;7.190;2022-07-23T05:14:25;0.70;;;0.60;;
53694;SDS011;39588;51.124;7.190;2022-07-23T05:16:50;0.30;;;0.30;;
53694;SDS011;39588;51.124;7.190;2022-07-23T05:19:16;0.70;;;0.70;;
53694;SDS011;39588;51.124;7.190;2022-07-23T05:21:41;0.10;;;0.10;;
53694;SDS011;39588;51.124;7.190;2022-07-23T05:24:07;0.97;;;0.90;;
53694;SDS011;39588;51.124;7.190;2022-07-23T05:26:33;0.73;;;0.73;;
53694;SDS011;39588;51.124;7.190;2022-07-23T05:28:58;0.73;;;0.73;;
53694;SDS011;39588;51.124;7.190;2022-07-23T05:31:24;0.20;;;0.20;;
53694;SDS011;39588;51.124;7.190;2022-07-23T05:33:49;0.23;;;0.20;;
53694;SDS011;39588;51.124;7.190;2022-07-23T05:36:15;0.10;;;0.10;;
53694;SDS011;39588;51.124;7.190;2022-07-23T05:38:41;1.20;;;0.97;;
53694;SDS011;39588;51.124;7.190;2022-07-23T05:41:06;0.10;;;0.10;;
53694;SDS011;39588;51.124;7.190;2022-07-23T05:43:32;0.00;;;0.00;;
53694;SDS011;39588;51.124;7.190;2022-07-23T05:45:58;0.20;;;0.20;;
53694;SDS011;39588;51.124;7.190;2022-07-23T05:48:23;0.10;;;0.10;;
53694;SDS011;39588;51.124;7.190;2022-07-23T05:50:49;0.20;;;0.20;;
53694;SDS011;39588;51.124;7.190;2022-07-23T05:53:15;0.50;;;0.50;;
53694;SDS011;39588;51.124;7.190;2022-07-23T05:55:40;0.10;;;0.10;;
53694;SDS011;39588;51.124;7.190;2022-07-23T05:58:06;0.10;;;0.10;;
53694;SDS011;39588;51.124;7.190;2022-07-23T06:00:31;0.00;;;0.00;;
53694;SDS011;39588;51.124;7.190;2022-07-23T06:02:57;0.30;;;0.30;;
53694;SDS011;39588;51.124;7.190;2022-07-23T06:05:23;0.80;;;0.80;;
53694;SDS011;39588;51.124;7.190;2022-07-23T06:07:49;0.47;;;0.47;;
53694;SDS011;39588;51.124;7.190;2022-07-23T06:10:15;1.30;;;0.67;;
53694;SDS011;39588;51.124;7.190;2022-07-23T06:12:41;0.40;;;0.40;;
53694;SDS011;39588;51.124;7.190;2022-07-23T06:15:07;0.30;;;0.30;;
53694;SDS011;39588;51.124;7.190;2022-07-23T06:17:34;0.20;;;0.20;;
53694;SDS011;39588;51.124;7.190;2022-07-23T06:19:59;0.20;;;0.20;;
53694;SDS011;39588;51.124;7.190;2022-07-23T06:22:25;0.20;;;0.20;;
53694;SDS011;39588;51.124;7.190;2022-07-23T06:24:51;0.30;;;0.30;;
53694;SDS011;39588;51.124;7.190;2022-07-23T06:27:16;2.20;;;1.20;;
53694;SDS011;39588;51.124;7.190;2022-07-23T06:29:43;0.10;;;0.10;;
53694;SDS011;39588;51.124;7.190;2022-07-23T06:32:08;0.00;;;0.00;;
53694;SDS011;39588;51.124;7.190;2022-07-23T06:34:34;0.40;;;0.40;;
53694;SDS011;39588;51.124;7.190;2022-07-23T06:37:00;0.10;;;0.10;;
53694;SDS011;39588;51.124;7.190;2022-07-23T06:39:25;0.23;;;0.23;;
53694;SDS011;39588;51.124;7.190;2022-07-23T06:41:51;0.20;;;0.20;;
53694;SDS011;39588;51.124;7.190;2022-07-23T06:44:17;0.30;;;0.30;;
53694;SDS011;39588;51.124;7.190;2022-07-23T06:46:43;0.97;;;0.97;;
53694;SDS011;39588;51.124;7.190;2022-07-23T06:49:09;0.20;;;0.20;;
53694;SDS011;39588;51.124;7.190;2022-07-23T06:51:34;0.13;;;0.13;;
53694;SDS011;39588;51.124;7.190;2022-07-23T06:54:00;0.33;;;0.33;;
53694;SDS011;39588;51.124;7.190;2022-07-23T06:56:26;0.50;;;0.50;;
53694;SDS011;39588;51.124;7.190;2022-07-23T06:58:52;0.40;;;0.40;;
53694;SDS011;39588;51.124;7.190;2022-07-23T07:01:17;0.47;;;0.47;;
53694;SDS011;39588;51.124;7.190;2022-07-23T07:03:43;0.10;;;0.10;;
53694;SDS011;39588;51.124;7.190;2022-07-23T07:06:09;0.77;;;0.77;;
53694;SDS011;39588;51.124;7.190;2022-07-23T07:08:35;0.53;;;0.53;;
53694;SDS011;39588;51.124;7.190;2022-07-23T07:11:00;0.00;;;0.00;;
53694;SDS011;39588;51.124;7.190;2022-07-23T07:13:26;0.67;;;0.63;;
53694;SDS011;39588;51.124;7.190;2022-07-23T07:15:52;0.40;;;0.40;;
53694;SDS011;39588;51.124;7.190;2022-07-23T07:18:17;0.57;;;0.57;;
53694;SDS011;39588;51.124;7.190;2022-07-23T07:20:43;0.10;;;0.10;;
53694;SDS011;39588;51.124;7.190;2022-07-23T07:23:08;0.10;;;0.10;;
53694;SDS011;39588;51.124;7.190;2022-07-23T07:25:34;0.10;;;0.10;;
53694;SDS011;39588;51.124;7.190;2022-07-23T07:28:00;0.30;;;0.30;;
53694;SDS011;39588;51.124;7.190;2022-07-23T07:30:26;0.13;;;0.13;;
53694;SDS011;39588;51.124;7.190;2022-07-23T07:32:51;0.23;;;0.23;;
53694;SDS011;39588;51.124;7.190;2022-07-23T07:35:17;0.10;;;0.10;;
53694;SDS011;39588;51.124;7.190;2022-07-23T07:37:43;0.30;;;0.30;;
53694;SDS011;39588;51.124;7.190;2022-07-23T07:40:08;1.13;;;1.07;;
53694;SDS011;39588;51.124;7.190;2022-07-23T07:42:34;0.10;;;0.10;;
53694;SDS011;39588;51.124;7.190;2022-07-23T07:45:09;1.23;;;1.23;;
53694;SDS011;39588;51.124;7.190;2022-07-23T07:47:34;0.20;;;0.20;;
53694;SDS011;39588;51.124;7.190;2022-07-23T07:50:00;0.70;;;0.70;;
53694;SDS011;39588;51.124;7.190;2022-07-23T07:52:26;0.20;;;0.20;;
53694;SDS011;39588;51.124;7.190;2022-07-23T07:54:51;0.10;;;0.10;;
53694;SDS011;39588;51.124;7.190;2022-07-23T07:57:17;0.93;;;0.93;;
53694;SDS011;39588;51.124;7.190;2022-07-23T07:59:43;0.10;;;0.10;;
53694;SDS011;39588;51.124;7.190;2022-07-23T08:02:08;0.83;;;0.83;;
53694;SDS011;39588;51.124;7.190;2022-07-23T08:04:34;0.33;;;0.33;;
53694;SDS011;39588;51.124;7.190;2022-07-23T08:06:59;0.87;;;0.87;;
53694;SDS011;39588;51.124;7.190;2022-07-23T08:09:25;0.50;;;0.50;;
53694;SDS011;39588;51.124;7.190;2022-07-23T08:11:51;0.50;;;0.50;;
53694;SDS011;39588;51.124;7.190;2022-07-23T08:14:17;0.10;;;0.10;;
53694;SDS011;39588;51.124;7.190;2022-07-23T08:16:43;0.10;;;0.10;;
53694;SDS011;39588;51.124;7.190;2022-07-23T08:19:09;0.30;;;0.30;;
53694;SDS011;39588;51.124;7.190;2022-07-23T08:21:34;1.40;;;1.10;;
53694;SDS011;39588;51.124;7.190;2022-07-23T08:24:00;0.10;;;0.10;;
53694;SDS011;39588;51.124;7.190;2022-07-23T08:26:26;1.40;;;1.33;;
53694;SDS011;39588;51.124;7.190;2022-07-23T08:28:51;0.10;;;0.10;;
53694;SDS011;39588;51.124;7.190;2022-07-23T08:31:17;0.10;;;0.10;;
53694;SDS011;39588;51.124;7.190;2022-07-23T08:33:43;0.60;;;0.60;;
53694;SDS011;39588;51.124;7.190;2022-07-23T08:36:09;0.37;;;0.30;;
53694;SDS011;39588;51.124;7.190;2022-07-23T08:38:35;0.33;;;0.33;;
53694;SDS011;39588;51.124;7.190;2022-07-23T08:41:00;0.30;;;0.30;;
53694;SDS011;39588;51.124;7.190;2022-07-23T08:43:29;0.60;;;0.60;;
53694;SDS011;39588;51.124;7.190;2022-07-23T08:45:56;0.30;;;0.30;;
53694;SDS011;39588;51.124;7.190;2022-07-23T08:48:27;0.63;;;0.63;;
53694;SDS011;39588;51.124;7.190;2022-07-23T08:50:55;0.30;;;0.30;;
53694;SDS011;39588;51.124;7.190;2022-07-23T08:53:23;0.67;;;0.67;;
53694;SDS011;39588;51.124;7.190;2022-07-23T08:55:51;0.10;;;0.10;;
53694;SDS011;39588;51.124;7.190;2022-07-23T08:58:18;0.37;;;0.37;;
53694;SDS011;39588;51.124;7.190;2022-07-23T09:00:44;9.90;;;0.77;;
53694;SDS011;39588;51.124;7.190;2022-07-23T09:03:14;0.13;;;0.13;;
53694;SDS011;39588;51.124;7.190;2022-07-23T09:05:42;1.10;;;1.10;;
53694;SDS011;39588;51.124;7.190;2022-07-23T09:08:12;1.47;;;1.47;;
53694;SDS011;39588;51.124;7.190;2022-07-23T09:10:43;1.73;;;1.63;;
53694;SDS011;39588;51.124;7.190;2022-07-23T09:13:34;2.40;;;2.27;;
53694;SDS011;39588;51.124;7.190;2022-07-23T09:23:53;2.10;;;1.50;;
53694;SDS011;39588;51.124;7.190;2022-07-23T09:26:25;1.53;;;1.43;;
53694;SDS011;39588;51.124;7.190;2022-07-23T09:29:07;2.57;;;1.90;;
53694;SDS011;39588;51.124;7.190;2022-07-23T09:31:44;2.20;;;2.00;;
53694;SDS011;39588;51.124;7.190;2022-07-23T09:36:39;1.60;;;1.43;;
53694;SDS011;39588;51.124;7.190;2022-07-23T09:39:06;1.90;;;1.73;;
53694;SDS011;39588;51.124;7.190;2022-07-23T09:41:42;1.43;;;1.37;;
53694;SDS011;39588;51.124;7.190;2022-07-23T09:44:11;1.70;;;1.53;;
53694;SDS011;39588;51.124;7.190;2022-07-23T09:46:38;2.50;;;2.13;;
53694;SDS011;39588;51.124;7.190;2022-07-23T09:49:18;1.90;;;1.73;;
53694;SDS011;39588;51.124;7.190;2022-07-23T09:56:47;1.53;;;1.47;;
53694;SDS011;39588;51.124;7.190;2022-07-23T09:59:14;2.17;;;1.73;;
53694;SDS011;39588;51.124;7.190;2022-07-23T10:01:44;1.93;;;1.73;;
53694;SDS011;39588;51.124;7.190;2022-07-23T10:04:10;1.87;;;1.77;;
53694;SDS011;39588;51.124;7.190;2022-07-23T10:06:38;1.53;;;1.47;;
53694;SDS011;39588;51.124;7.190;2022-07-23T10:09:05;1.40;;;1.30;;
53694;SDS011;39588;51.124;7.190;2022-07-23T10:11:35;1.60;;;1.50;;
53694;SDS011;39588;51.124;7.190;2022-07-23T10:14:01;1.70;;;1.60;;
53694;SDS011;39588;51.124;7.190;2022-07-23T10:16:29;1.07;;;1.07;;
53694;SDS011;39588;51.124;7.190;2022-07-23T10:18:55;1.23;;;1.23;;
53694;SDS011;39588;51.124;7.190;2022-07-23T10:21:24;1.67;;;1.57;;
53694;SDS011;39588;51.124;7.190;2022-07-23T10:24:17;2.20;;;2.00;;
53694;SDS011;39588;51.124;7.190;2022-07-23T10:32:53;2.73;;;1.77;;
53694;SDS011;39588;51.124;7.190;2022-07-23T10:35:47;1.37;;;1.37;;
53694;SDS011;39588;51.124;7.190;2022-07-23T10:38:39;1.33;;;1.23;;
53694;SDS011;39588;51.124;7.190;2022-07-23T10:41:12;0.70;;;0.70;;
53694;SDS011;39588;51.124;7.190;2022-07-23T10:43:38;1.67;;;1.17;;
53694;SDS011;39588;51.124;7.190;2022-07-23T10:46:20;1.00;;;1.00;;
53694;SDS011;39588;51.124;7.190;2022-07-23T10:49:25;1.23;;;1.13;;
53694;SDS011;39588;51.124;7.190;2022-07-23T10:54:44;0.77;;;0.77;;
53694;SDS011;39588;51.124;7.190;2022-07-23T10:57:16;0.87;;;0.87;;
53694;SDS011;39588;51.124;7.190;2022-07-23T11:00:26;1.10;;;1.10;;
53694;SDS011;39588;51.124;7.190;2022-07-23T11:02:36;3.17;;;1.53;;
53694;SDS011;39588;51.124;7.190;2022-07-23T11:05:15;1.10;;;1.10;;
53694;SDS011;39588;51.124;7.190;2022-07-23T11:10:36;1.10;;;1.10;;
53694;SDS011;39588;51.124;7.190;2022-07-23T11:24:03;1.73;;;1.63;;
53694;SDS011;39588;51.124;7.190;2022-07-23T11:34:45;0.90;;;0.90;;
53694;SDS011;39588;51.124;7.190;2022-07-23T11:37:13;1.40;;;1.30;;
53694;SDS011;39588;51.124;7.190;2022-07-23T11:40:06;1.20;;;1.20;;
53694;SDS011;39588;51.124;7.190;2022-07-23T11:42:37;1.13;;;1.13;;
53694;SDS011;39588;51.124;7.190;2022-07-23T11:45:08;0.90;;;0.90;;
53694;SDS011;39588;51.124;7.190;2022-07-23T11:47:34;0.80;;;0.80;;
53694;SDS011;39588;51.124;7.190;2022-07-23T11:50:01;0.90;;;0.90;;
53694;SDS011;39588;51.124;7.190;2022-07-23T11:52:30;1.60;;;1.50;;
53694;SDS011;39588;51.124;7.190;2022-07-23T11:54:56;3.57;;;2.00;;
53694;SDS011;39588;51.124;7.190;2022-07-23T11:57:32;1.07;;;1.07;;
53694;SDS011;39588;51.124;7.190;2022-07-23T12:02:38;1.60;;;1.10;;
53694;SDS011;39588;51.124;7.190;2022-07-23T12:05:06;1.13;;;0.93;;
53694;SDS011;39588;51.124;7.190;2022-07-23T12:07:41;1.60;;;1.50;;
53694;SDS011;39588;51.124;7.190;2022-07-23T12:10:14;1.27;;;1.27;;
53694;SDS011;39588;51.124;7.190;2022-07-23T12:12:50;0.93;;;0.93;;
53694;SDS011;39588;51.124;7.190;2022-07-23T12:15:20;3.80;;;1.40;;
53694;SDS011;39588;51.124;7.190;2022-07-23T12:17:48;1.10;;;1.10;;
53694;SDS011;39588;51.124;7.190;2022-07-23T12:20:17;1.40;;;1.13;;
53694;SDS011;39588;51.124;7.190;2022-07-23T12:22:47;1.27;;;1.17;;
53694;SDS011;39588;51.124;7.190;2022-07-23T12:25:15;1.40;;;1.30;;
53694;SDS011;39588;51.124;7.190;2022-07-23T12:27:43;2.33;;;1.50;;
53694;SDS011;39588;51.124;7.190;2022-07-23T12:32:46;1.13;;;1.07;;
53694;SDS011;39588;51.124;7.190;2022-07-23T12:35:14;1.13;;;1.13;;
53694;SDS011;39588;51.124;7.190;2022-07-23T12:37:41;1.43;;;1.33;;
53694;SDS011;39588;51.124;7.190;2022-07-23T12:45:43;0.97;;;0.97;;
53694;SDS011;39588;51.124;7.190;2022-07-23T12:48:23;1.03;;;1.03;;
53694;SDS011;39588;51.124;7.190;2022-07-23T12:51:01;2.37;;;2.00;;
53694;SDS011;39588;51.124;7.190;2022-07-23T12:53:32;1.73;;;1.50;;
53694;SDS011;39588;51.124;7.190;2022-07-23T12:58:39;1.20;;;1.10;;
53694;SDS011;39588;51.124;7.190;2022-07-23T13:01:08;1.57;;;1.47;;
53694;SDS011;39588;51.124;7.190;2022-07-23T13:03:36;1.50;;;1.40;;
53694;SDS011;39588;51.124;7.190;2022-07-23T13:06:04;1.40;;;1.37;;
53694;SDS011;39588;51.124;7.190;2022-07-23T13:08:32;1.83;;;1.70;;
53694;SDS011;39588;51.124;7.190;2022-07-23T13:10:59;1.30;;;1.20;;
53694;SDS011;39588;51.124;7.190;2022-07-23T13:13:26;1.33;;;1.23;;
53694;SDS011;39588;51.124;7.190;2022-07-23T13:15:54;1.13;;;1.07;;
53694;SDS011;39588;51.124;7.190;2022-07-23T13:18:20;1.73;;;1.63;;
53694;SDS011;39588;51.124;7.190;2022-07-23T13:20:46;1.83;;;1.70;;
53694;SDS011;39588;51.124;7.190;2022-07-23T13:23:12;1.80;;;1.70;;
53694;SDS011;39588;51.124;7.190;2022-07-23T13:25:39;1.87;;;1.77;;
53694;SDS011;39588;51.124;7.190;2022-07-23T13:28:05;1.70;;;1.60;;
53694;SDS011;39588;51.124;7.190;2022-07-23T13:30:31;3.37;;;1.63;;
53694;SDS011;39588;51.124;7.190;2022-07-23T13:32:56;1.60;;;1.47;;
53694;SDS011;39588;51.124;7.190;2022-07-23T13:35:22;0.93;;;0.93;;
53694;SDS011;39588;51.124;7.190;2022-07-23T13:37:48;1.63;;;1.53;;
53694;SDS011;39588;51.124;7.190;2022-07-23T13:40:13;1.53;;;1.43;;
53694;SDS011;39588;51.124;7.190;2022-07-23T13:42:40;1.20;;;1.00;;
53694;SDS011;39588;51.124;7.190;2022-07-23T13:45:07;1.27;;;1.20;;
53694;SDS011;39588;51.124;7.190;2022-07-23T13:47:33;4.53;;;1.63;;
53694;SDS011;39588;51.124;7.190;2022-07-23T13:49:59;2.20;;;2.10;;
53694;SDS011;39588;51.124;7.190;2022-07-23T13:52:24;1.57;;;1.47;;
53694;SDS011;39588;51.124;7.190;2022-07-23T13:54:50;1.70;;;1.20;;
53694;SDS011;39588;51.124;7.190;2022-07-23T13:57:16;1.47;;;1.37;;
53694;SDS011;39588;51.124;7.190;2022-07-23T13:59:41;0.97;;;0.97;;
53694;SDS011;39588;51.124;7.190;2022-07-23T14:02:07;1.43;;;1.33;;
53694;SDS011;39588;51.124;7.190;2022-07-23T14:04:33;1.40;;;1.40;;
53694;SDS011;39588;51.124;7.190;2022-07-23T14:06:59;1.87;;;1.30;;
53694;SDS011;39588;51.124;7.190;2022-07-23T14:09:25;1.10;;;1.10;;
53694;SDS011;39588;51.124;7.190;2022-07-23T14:11:51;0.80;;;0.80;;
53694;SDS011;39588;51.124;7.190;2022-07-23T14:14:17;1.10;;;1.10;;
53694;SDS011;39588;51.124;7.190;2022-07-23T14:16:43;1.00;;;1.00;;
53694;SDS011;39588;51.124;7.190;2022-07-23T14:19:09;1.10;;;1.10;;
53694;SDS011;39588;51.124;7.190;2022-07-23T14:21:35;1.37;;;1.27;;
53694;SDS011;39588;51.124;7.190;2022-07-23T14:24:01;1.00;;;1.00;;
53694;SDS011;39588;51.124;7.190;2022-07-23T14:26:27;0.70;;;0.70;;
53694;SDS011;39588;51.124;7.190;2022-07-23T14:28:52;2.17;;;1.27;;
53694;SDS011;39588;51.124;7.190;2022-07-23T14:31:18;1.40;;;1.30;;
53694;SDS011;39588;51.124;7.190;2022-07-23T14:33:44;0.73;;;0.73;;
53694;SDS011;39588;51.124;7.190;2022-07-23T14:36:09;0.97;;;0.90;;
53694;SDS011;39588;51.124;7.190;2022-07-23T14:38:35;1.53;;;1.43;;
53694;SDS011;39588;51.124;7.190;2022-07-23T14:41:01;0.87;;;0.87;;
53694;SDS011;39588;51.124;7.190;2022-07-23T14:43:31;0.83;;;0.83;;
53694;SDS011;39588;51.124;7.190;2022-07-23T14:45:57;2.13;;;1.30;;
53694;SDS011;39588;51.124;7.190;2022-07-23T14:48:23;0.50;;;0.50;;
53694;SDS011;39588;51.124;7.190;2022-07-23T14:50:48;1.23;;;0.90;;
53694;SDS011;39588;51.124;7.190;2022-07-23T14:53:14;6.50;;;2.67;;
53694;SDS011;39588;51.124;7.190;2022-07-23T14:55:40;0.97;;;0.97;;
53694;SDS011;39588;51.124;7.190;2022-07-23T14:58:06;1.00;;;1.00;;
53694;SDS011;39588;51.124;7.190;2022-07-23T15:00:31;1.30;;;1.30;;
53694;SDS011;39588;51.124;7.190;2022-07-23T15:02:57;1.00;;;1.00;;
53694;SDS011;39588;51.124;7.190;2022-07-23T15:05:22;1.70;;;1.60;;
53694;SDS011;39588;51.124;7.190;2022-07-23T15:07:48;2.77;;;1.40;;
53694;SDS011;39588;51.124;7.190;2022-07-23T15:10:14;1.00;;;1.00;;
53694;SDS011;39588;51.124;7.190;2022-07-23T15:12:40;3.30;;;1.33;;
53694;SDS011;39588;51.124;7.190;2022-07-23T15:15:06;0.70;;;0.70;;
53694;SDS011;39588;51.124;7.190;2022-07-23T15:17:32;1.93;;;1.23;;
53694;SDS011;39588;51.124;7.190;2022-07-23T15:19:58;0.80;;;0.80;;
53694;SDS011;39588;51.124;7.190;2022-07-23T15:22:24;3.43;;;1.30;;
53694;SDS011;39588;51.124;7.190;2022-07-23T15:24:49;1.13;;;1.03;;
53694;SDS011;39588;51.124;7.190;2022-07-23T15:27:15;1.23;;;1.13;;
53694;SDS011;39588;51.124;7.190;2022-07-23T15:29:42;1.13;;;1.13;;
53694;SDS011;39588;51.124;7.190;2022-07-23T15:32:09;1.07;;;1.07;;
53694;SDS011;39588;51.124;7.190;2022-07-23T15:34:36;0.90;;;0.90;;
53694;SDS011;39588;51.124;7.190;2022-07-23T15:37:02;1.10;;;1.10;;
53694;SDS011;39588;51.124;7.190;2022-07-23T15:39:30;1.00;;;1.00;;
53694;SDS011;39588;51.124;7.190;2022-07-23T15:41:59;3.03;;;2.10;;
53694;SDS011;39588;51.124;7.190;2022-07-23T15:44:25;0.97;;;0.97;;
53694;SDS011;39588;51.124;7.190;2022-07-23T15:46:51;1.00;;;1.00;;